createdAt,value
2022-09-05T00:00:04.367Z,5.78
2022-09-05T00:02:59.889Z,5.80
2022-09-05T00:06:03.543Z,5.35
2022-09-05T00:08:38.235Z,5.60
2022-09-05T00:11:41.104Z,5.60
2022-09-05T00:14:58.611Z,5.60
2022-09-05T00:17:22.470Z,5.47
2022-09-05T00:24:26.411Z,5.50
2022-09-05T00:24:29.592Z,5.90
2022-09-05T00:25:59.894Z,5.95
2022-09-05T00:28:36.187Z,5.63
2022-09-05T00:31:55.598Z,5.43
2022-09-05T00:34:46.510Z,5.85
2022-09-05T00:37:16.455Z,6.03
2022-09-05T00:39:47.805Z,5.90
2022-09-05T00:42:23.712Z,5.80
2022-09-05T00:44:55.276Z,5.85
2022-09-05T00:47:30.215Z,5.72
2022-09-05T00:50:00.054Z,5.95
2022-09-05T00:52:32.868Z,6.30
2022-09-05T00:55:20.062Z,5.72
2022-09-05T00:58:01.833Z,6.00
2022-09-05T01:00:35.919Z,5.57
2022-09-05T01:03:31.247Z,6.10
2022-09-05T01:06:29.214Z,5.75
2022-09-05T01:09:34.079Z,5.50
2022-09-05T01:12:22.666Z,5.90
2022-09-05T01:15:08.180Z,5.60
2022-09-05T01:17:50.123Z,5.55
2022-09-05T01:20:31.469Z,5.97
2022-09-05T01:23:13.068Z,6.07
2022-09-05T01:25:55.155Z,5.80
2022-09-05T01:29:16.852Z,6.15
2022-09-05T01:31:18.633Z,5.85
2022-09-05T01:33:54.827Z,5.82
2022-09-05T01:36:47.024Z,6.25
2022-09-05T01:40:11.173Z,5.70
2022-09-05T01:42:17.199Z,5.60
2022-09-05T01:44:58.186Z,5.95
2022-09-05T01:47:38.246Z,6.47
2022-09-05T01:50:21.334Z,5.95
2022-09-05T01:53:05.458Z,6.07
2022-09-05T01:56:04.961Z,6.55
2022-09-05T01:58:47.603Z,6.03
2022-09-05T02:01:26.624Z,6.18
2022-09-05T02:04:21.810Z,6.30
2022-09-05T02:07:15.221Z,6.30
2022-09-05T02:10:09.186Z,6.55
2022-09-05T02:12:36.698Z,6.55
2022-09-05T02:15:06.335Z,5.97
2022-09-05T02:17:50.960Z,6.32
2022-09-05T02:20:23.845Z,6.25
2022-09-05T02:23:00.917Z,6.65
2022-09-05T02:26:02.330Z,6.22
2022-09-05T02:28:21.734Z,6.57
2022-09-05T02:31:19.180Z,6.25
2022-09-05T02:33:46.144Z,5.88
2022-09-05T02:36:17.515Z,6.07
2022-09-05T02:43:57.229Z,6.50
2022-09-05T02:45:08.057Z,6.10
2022-09-05T02:45:18.370Z,6.38
2022-09-05T02:47:24.030Z,5.80
2022-09-05T02:53:30.101Z,6.40
2022-09-05T02:57:30.072Z,6.03
2022-09-05T02:57:42.127Z,5.95
2022-09-05T02:59:35.939Z,6.55
2022-09-05T03:02:25.095Z,6.70
2022-09-05T03:05:04.299Z,6.28
2022-09-05T03:08:22.926Z,6.28
2022-09-05T03:11:28.780Z,6.68
2022-09-05T03:14:32.412Z,5.97
2022-09-05T03:17:45.513Z,6.80
2022-09-05T03:21:08.952Z,6.35
2022-09-05T03:23:59.307Z,6.05
2022-09-05T03:26:51.219Z,6.53
2022-09-05T03:29:58.595Z,6.45
2022-09-05T03:33:02.903Z,6.15
2022-09-05T03:36:23.313Z,6.18
2022-09-05T03:39:42.446Z,5.97
2022-09-05T03:42:55.826Z,6.68
2022-09-05T03:46:08.142Z,6.10
2022-09-05T03:49:10.503Z,6.35
2022-09-05T03:57:06.233Z,6.32
2022-09-05T03:57:22.992Z,6.72
2022-09-05T03:58:56.327Z,6.60
2022-09-05T04:02:04.774Z,6.38
2022-09-05T04:08:10.650Z,6.72
2022-09-05T04:08:30.602Z,6.95
2022-09-05T04:09:51.807Z,6.38
2022-09-05T04:12:20.266Z,6.30
2022-09-05T04:14:50.309Z,6.68
2022-09-05T04:17:28.911Z,6.85
2022-09-05T04:19:59.759Z,6.85
2022-09-05T04:22:32.096Z,6.05
2022-09-05T04:25:05.751Z,6.82
2022-09-05T04:27:41.082Z,6.63
2022-09-05T04:30:37.840Z,6.72
2022-09-05T04:33:11.540Z,6.53
2022-09-05T04:35:44.123Z,6.10
2022-09-05T04:38:15.126Z,6.75
2022-09-05T04:40:47.034Z,6.13
2022-09-05T04:43:19.957Z,6.60
2022-09-05T04:45:50.994Z,6.40
2022-09-05T04:48:21.619Z,6.00
2022-09-05T04:51:13.014Z,6.53
2022-09-05T04:54:14.415Z,6.05
2022-09-05T04:56:45.887Z,5.97
2022-09-05T05:02:59.729Z,5.60
2022-09-05T05:05:59.890Z,6.38
2022-09-05T05:06:17.106Z,5.82
2022-09-05T05:07:47.508Z,5.85
2022-09-05T05:11:34.874Z,5.43
2022-09-05T05:18:02.720Z,5.30
2022-09-05T05:18:12.787Z,5.20
2022-09-05T05:19:03.087Z,5.15
2022-09-05T05:21:32.823Z,5.40
2022-09-05T05:24:01.506Z,5.00
2022-09-05T05:26:34.006Z,5.10
2022-09-05T05:29:02.378Z,5.22
2022-09-05T05:31:31.336Z,4.82
2022-09-05T05:33:59.211Z,4.85
2022-09-05T05:36:30.021Z,4.78
2022-09-05T05:38:59.160Z,4.85
2022-09-05T05:41:31.741Z,4.60
2022-09-05T05:43:55.658Z,4.80
2022-09-05T05:46:32.458Z,4.55
2022-09-05T05:49:15.341Z,4.57
2022-09-05T05:52:02.381Z,4.43
2022-09-05T05:54:32.926Z,4.10
2022-09-05T05:57:41.854Z,4.53
2022-09-05T06:00:27.488Z,4.47
2022-09-05T06:03:48.153Z,4.93
2022-09-05T06:06:50.624Z,4.90
2022-09-05T06:14:54.798Z,5.03
2022-09-05T06:17:01.974Z,5.00
2022-09-05T06:22:05.832Z,4.47
2022-09-05T06:23:56.083Z,6.47
2022-09-05T06:27:03.326Z,6.47
2022-09-05T06:29:39.756Z,6.25
2022-09-05T06:32:18.720Z,5.32
2022-09-05T06:35:11.791Z,5.60
2022-09-05T06:37:45.619Z,5.32
2022-09-05T06:40:19.206Z,5.72
2022-09-05T06:43:18.463Z,4.93
2022-09-05T06:46:04.309Z,4.97
2022-09-05T06:48:45.888Z,4.10
2022-09-05T06:52:27.843Z,3.88
2022-09-05T06:55:28.149Z,4.07
2022-09-05T06:58:48.787Z,3.80
2022-09-05T07:01:14.266Z,3.53
2022-09-05T07:05:14.651Z,3.55
2022-09-05T07:07:06.502Z,3.90
2022-09-05T07:09:38.723Z,3.90
2022-09-05T07:12:15.938Z,3.40
2022-09-05T07:14:54.843Z,3.90
2022-09-05T07:17:28.134Z,3.60
2022-09-05T07:19:58.380Z,3.63
2022-09-05T07:22:47.104Z,3.78
2022-09-05T07:25:18.764Z,3.50
2022-09-05T07:28:26.352Z,3.75
2022-09-05T07:30:42.071Z,4.32
2022-09-05T07:33:06.370Z,4.00
2022-09-05T07:35:41.597Z,3.22
2022-09-05T07:38:13.886Z,4.03
2022-09-05T07:40:42.218Z,4.13
2022-09-05T07:43:10.633Z,3.88
2022-09-05T07:45:37.837Z,4.30
2022-09-05T07:48:09.621Z,4.40
2022-09-05T07:56:39.225Z,4.40
2022-09-05T07:56:56.542Z,4.45
2022-09-05T07:57:10.066Z,4.78
2022-09-05T07:58:55.630Z,4.60
2022-09-05T08:01:23.564Z,4.22
2022-09-05T08:03:47.477Z,4.40
2022-09-05T08:07:14.417Z,4.00
2022-09-05T08:10:03.841Z,4.40
2022-09-05T08:11:52.850Z,4.50
2022-09-05T08:14:44.972Z,4.80
2022-09-05T08:17:15.330Z,4.30
2022-09-05T08:20:09.049Z,4.47
2022-09-05T08:22:48.089Z,4.30
2022-09-05T08:25:22.706Z,4.50
2022-09-05T08:28:06.360Z,4.68
2022-09-05T08:30:32.523Z,4.13
2022-09-05T08:33:11.406Z,4.70
2022-09-05T08:35:42.519Z,4.50
2022-09-05T08:38:07.719Z,4.18
2022-09-05T08:40:38.982Z,4.05
2022-09-05T08:46:04.568Z,4.45
2022-09-05T08:46:41.611Z,4.15
2022-09-05T08:49:32.316Z,4.50
2022-09-05T08:52:09.455Z,3.83
2022-09-05T08:54:39.790Z,4.38
2022-09-05T08:57:15.446Z,4.53
2022-09-05T09:00:10.317Z,4.13
2022-09-05T09:03:04.444Z,4.53
2022-09-05T09:06:16.110Z,4.30
2022-09-05T09:08:55.136Z,4.40
2022-09-05T09:11:34.270Z,4.53
2022-09-05T09:14:43.727Z,4.25
2022-09-05T09:17:26.801Z,4.60
2022-09-05T09:19:58.468Z,4.32
2022-09-05T09:22:40.590Z,4.20
2022-09-05T09:25:15.146Z,4.25
2022-09-05T09:28:45.081Z,4.32
2022-09-05T09:30:57.446Z,3.90
2022-09-05T09:33:32.987Z,4.10
2022-09-05T09:36:07.971Z,3.90
2022-09-05T09:38:43.091Z,3.70
2022-09-05T09:41:45.657Z,4.03
2022-09-05T09:45:27.448Z,4.15
2022-09-05T09:48:20.762Z,4.05
2022-09-05T09:51:04.188Z,3.95
2022-09-05T09:53:53.320Z,4.30
2022-09-05T09:57:02.922Z,4.00
2022-09-05T10:00:09.932Z,3.75
2022-09-05T10:06:54.070Z,3.88
2022-09-05T10:09:40.047Z,3.78
2022-09-05T10:11:07.997Z,4.22
2022-09-05T10:13:21.800Z,3.78
2022-09-05T10:16:38.149Z,3.72
2022-09-05T10:23:02.115Z,3.33
2022-09-05T10:25:41.512Z,3.75
2022-09-05T10:28:09.033Z,3.22
2022-09-05T10:32:32.604Z,3.72
2022-09-05T10:35:12.866Z,3.67
2022-09-05T10:36:33.751Z,3.55
2022-09-05T10:39:17.302Z,3.30
2022-09-05T10:41:51.000Z,3.60
2022-09-05T10:44:15.967Z,3.10
2022-09-05T10:46:56.058Z,3.47
2022-09-05T10:49:30.137Z,3.60
2022-09-05T10:52:09.973Z,3.63
2022-09-05T10:55:15.185Z,3.30
2022-09-05T10:57:51.547Z,3.40
2022-09-05T11:02:23.406Z,3.53
2022-09-05T11:03:31.700Z,3.58
2022-09-05T11:06:09.083Z,3.47
2022-09-05T11:08:42.910Z,3.50
2022-09-05T11:11:20.698Z,3.38
2022-09-05T11:13:54.417Z,3.47
2022-09-05T11:16:29.811Z,3.22
2022-09-05T11:19:00.608Z,3.58
2022-09-05T11:21:32.561Z,3.50
2022-09-05T11:24:00.787Z,3.80
2022-09-05T11:26:42.339Z,2.80
2022-09-05T11:29:11.659Z,4.43
2022-09-05T11:32:22.450Z,3.25
2022-09-05T11:39:55.070Z,3.58
2022-09-05T11:40:02.600Z,3.45
2022-09-05T11:42:28.371Z,3.95
2022-09-05T11:45:43.943Z,3.50
2022-09-05T11:48:36.632Z,3.60
2022-09-05T11:51:36.563Z,3.60
2022-09-05T11:54:57.160Z,4.07
2022-09-05T11:57:49.231Z,3.25
2022-09-05T12:00:33.795Z,3.88
2022-09-05T12:03:58.686Z,3.75
2022-09-05T12:06:59.438Z,3.65
2022-09-05T12:09:42.682Z,3.85
2022-09-05T12:12:39.402Z,3.83
2022-09-05T12:15:26.051Z,3.80
2022-09-05T12:18:19.084Z,3.60
2022-09-05T12:20:55.268Z,3.67
2022-09-05T12:23:51.445Z,3.80
2022-09-05T12:27:42.197Z,3.40
2022-09-05T12:29:33.658Z,3.40
2022-09-05T12:33:56.612Z,3.90
2022-09-05T12:36:10.578Z,3.55
2022-09-05T12:39:56.016Z,3.30
2022-09-05T12:41:39.227Z,3.13
2022-09-05T12:44:37.493Z,3.92
2022-09-05T12:46:09.605Z,3.70
2022-09-05T12:48:55.149Z,3.50
2022-09-05T12:51:46.247Z,4.00
2022-09-05T12:54:32.586Z,3.38
2022-09-05T13:02:58.205Z,3.63
2022-09-05T13:02:58.702Z,3.88
2022-09-05T13:03:11.798Z,3.70
2022-09-05T13:05:26.969Z,3.97
2022-09-05T13:07:57.116Z,3.85
2022-09-05T13:14:20.184Z,3.58
2022-09-05T13:14:58.512Z,3.60
2022-09-05T13:15:57.999Z,3.90
2022-09-05T13:18:24.751Z,3.92
2022-09-05T13:21:07.698Z,3.63
2022-09-05T13:23:37.256Z,4.20
2022-09-05T13:26:08.039Z,4.32
2022-09-05T13:28:44.555Z,4.70
2022-09-05T13:36:01.296Z,4.38
2022-09-05T13:38:05.047Z,3.60
2022-09-05T13:38:19.073Z,3.90
2022-09-05T13:39:52.865Z,3.60
2022-09-05T13:42:20.814Z,4.32
2022-09-05T13:44:46.482Z,4.78
2022-09-05T13:47:30.091Z,4.60
2022-09-05T13:50:11.583Z,4.45
2022-09-05T13:52:43.605Z,4.07
2022-09-05T13:55:22.798Z,4.28
2022-09-05T13:57:51.631Z,4.25
2022-09-05T14:01:11.733Z,4.47
2022-09-05T14:07:47.526Z,4.38
2022-09-05T14:10:59.387Z,5.30
2022-09-05T14:13:28.195Z,4.57
2022-09-05T14:15:59.096Z,4.65
2022-09-05T14:18:26.021Z,4.40
2022-09-05T14:21:14.160Z,4.40
2022-09-05T14:23:53.853Z,4.32
2022-09-05T14:26:26.647Z,4.45
2022-09-05T14:29:05.125Z,4.35
2022-09-05T14:37:34.665Z,4.03
2022-09-05T14:37:45.590Z,4.30
2022-09-05T14:38:09.509Z,4.45
2022-09-05T14:41:28.313Z,4.47
2022-09-05T14:44:34.089Z,4.30
2022-09-05T14:47:36.542Z,4.18
2022-09-05T14:50:27.647Z,4.40
2022-09-05T14:57:23.795Z,4.05
2022-09-05T15:02:50.083Z,4.10
2022-09-05T15:02:58.243Z,4.55
2022-09-05T15:07:05.402Z,4.68
2022-09-05T15:12:15.230Z,4.40
2022-09-05T15:12:31.251Z,4.18
2022-09-05T15:15:22.942Z,4.35
2022-09-05T15:17:51.107Z,4.28
2022-09-05T15:20:31.462Z,4.70
2022-09-05T15:22:57.585Z,3.92
2022-09-05T15:25:23.943Z,4.32
2022-09-05T15:27:49.600Z,3.78
2022-09-05T15:30:27.534Z,4.25
2022-09-05T15:33:25.828Z,4.07
2022-09-05T15:35:49.929Z,4.10
2022-09-05T15:38:38.723Z,4.07
2022-09-05T15:41:22.222Z,4.15
2022-09-05T15:43:59.769Z,4.68
2022-09-05T15:46:41.230Z,4.20
2022-09-05T15:49:10.407Z,4.38
2022-09-05T15:51:47.625Z,4.60
2022-09-05T15:54:30.742Z,6.30
2022-09-05T15:57:08.955Z,5.00
2022-09-05T15:59:48.243Z,4.93
2022-09-05T16:02:21.144Z,4.28
2022-09-05T16:09:56.646Z,4.53
2022-09-05T16:10:39.235Z,4.30
2022-09-05T16:10:58.330Z,4.70
2022-09-05T16:13:15.671Z,4.55
2022-09-05T16:20:13.027Z,4.28
2022-09-05T16:23:24.617Z,4.60
2022-09-05T16:23:35.078Z,5.00
2022-09-05T16:24:18.499Z,4.68
2022-09-05T16:26:53.579Z,4.82
2022-09-05T16:29:26.540Z,4.72
2022-09-05T16:32:08.547Z,4.10
2022-09-05T16:34:42.714Z,4.88
2022-09-05T16:37:12.475Z,4.53
2022-09-05T16:39:40.169Z,4.78
2022-09-05T16:42:12.019Z,4.25
2022-09-05T16:44:39.998Z,4.90
2022-09-05T16:47:13.133Z,4.82
2022-09-05T16:49:41.907Z,4.60
2022-09-05T16:52:09.831Z,4.20
2022-09-05T16:54:47.674Z,4.45
2022-09-05T16:57:18.238Z,4.70
2022-09-05T16:59:45.674Z,4.22
2022-09-05T17:02:12.073Z,5.22
2022-09-05T17:05:04.985Z,4.70
2022-09-05T17:07:33.881Z,4.70
2022-09-05T17:10:07.633Z,4.72
2022-09-05T17:12:35.343Z,4.47
2022-09-05T17:15:04.339Z,4.80
2022-09-05T17:18:20.740Z,4.70
2022-09-05T17:20:23.431Z,5.00
2022-09-05T17:26:00.498Z,4.80
2022-09-05T17:29:25.249Z,4.72
2022-09-05T17:29:32.596Z,4.72
2022-09-05T17:31:54.982Z,4.65
2022-09-05T17:34:51.931Z,4.63
2022-09-05T17:37:44.647Z,4.50
2022-09-05T17:41:19.627Z,5.00
2022-09-05T17:43:43.870Z,4.40
2022-09-05T17:46:20.170Z,4.45
2022-09-05T17:49:18.726Z,5.07
2022-09-05T17:52:18.242Z,4.65
2022-09-05T17:54:49.556Z,5.05
2022-09-05T17:57:49.392Z,5.32
2022-09-05T18:01:07.615Z,4.80
2022-09-05T18:04:17.579Z,4.63
2022-09-05T18:06:59.349Z,4.80
2022-09-05T18:10:12.324Z,4.32
2022-09-05T18:13:13.713Z,4.90
2022-09-05T18:16:18.212Z,4.97
2022-09-05T18:21:52.436Z,4.43
2022-09-05T18:24:32.679Z,4.88
2022-09-05T18:27:28.202Z,5.07
2022-09-05T18:29:58.608Z,4.80
2022-09-05T18:32:45.242Z,5.13
2022-09-05T18:35:26.498Z,5.05
2022-09-05T18:38:50.545Z,4.55
2022-09-05T18:41:16.007Z,5.78
2022-09-05T18:44:13.385Z,5.60
2022-09-05T18:46:48.079Z,5.60
2022-09-05T18:50:21.752Z,5.50
2022-09-05T18:52:05.739Z,5.45
2022-09-05T18:54:34.909Z,4.53
2022-09-05T18:57:28.643Z,5.35
2022-09-05T18:59:54.351Z,5.68
2022-09-05T19:02:41.143Z,5.38
2022-09-05T19:05:15.987Z,5.68
2022-09-05T19:07:48.123Z,5.32
2022-09-05T19:10:34.354Z,5.68
2022-09-05T19:13:09.090Z,5.22
2022-09-05T19:15:47.953Z,5.40
2022-09-05T19:18:26.060Z,4.85
2022-09-05T19:21:16.723Z,5.13
2022-09-05T19:23:49.272Z,5.28
2022-09-05T19:26:13.846Z,5.90
2022-09-05T19:36:54.140Z,5.47
2022-09-05T19:36:56.020Z,5.78
2022-09-05T19:37:10.672Z,5.38
2022-09-05T19:37:28.923Z,4.97
2022-09-05T19:44:41.327Z,5.25
2022-09-05T19:47:33.735Z,4.90
2022-09-05T19:47:36.182Z,5.05
2022-09-05T19:50:57.242Z,4.80
2022-09-05T19:53:22.037Z,5.82
2022-09-05T19:55:46.542Z,5.07
2022-09-05T19:58:19.041Z,5.05
2022-09-05T20:00:50.408Z,5.32
2022-09-05T20:03:26.432Z,5.40
2022-09-05T20:05:51.525Z,5.03
2022-09-05T20:08:16.095Z,5.18
2022-09-05T20:10:39.996Z,5.53
2022-09-05T20:13:22.193Z,5.68
2022-09-05T20:15:46.034Z,5.78
2022-09-05T20:18:22.716Z,5.45
2022-09-05T20:20:55.234Z,5.10
2022-09-05T20:23:19.861Z,5.40
2022-09-05T20:25:48.079Z,5.60
2022-09-05T20:28:16.254Z,5.35
2022-09-05T20:30:45.309Z,4.70
2022-09-05T20:33:20.564Z,5.03
2022-09-05T20:43:09.759Z,5.50
2022-09-05T20:43:20.494Z,5.40
2022-09-05T20:43:35.040Z,5.43
2022-09-05T20:44:22.579Z,4.85
2022-09-05T20:50:11.627Z,4.82
2022-09-05T20:54:09.741Z,4.90
2022-09-05T20:54:22.576Z,4.53
2022-09-05T20:55:40.278Z,4.57
2022-09-05T20:58:10.895Z,4.18
2022-09-05T21:00:34.679Z,4.65
2022-09-05T21:03:00.864Z,4.57
2022-09-05T21:05:31.290Z,4.47
2022-09-05T21:08:26.415Z,4.30
2022-09-05T21:10:55.839Z,4.60
2022-09-05T21:13:27.248Z,3.90
2022-09-05T21:15:53.004Z,4.70
2022-09-05T21:18:20.864Z,4.00
2022-09-05T21:20:54.511Z,4.35
2022-09-05T21:23:22.338Z,3.72
2022-09-05T21:25:55.922Z,3.80
2022-09-05T21:28:36.431Z,3.70
2022-09-05T21:31:05.101Z,3.78
2022-09-05T21:33:38.841Z,3.80
2022-09-05T21:36:08.945Z,3.35
2022-09-05T21:38:40.591Z,3.03
2022-09-05T21:41:07.077Z,3.60
2022-09-05T21:47:37.889Z,3.28
2022-09-05T21:47:38.804Z,3.13
2022-09-05T21:48:59.095Z,3.00
2022-09-05T21:51:25.127Z,2.72
2022-09-05T21:57:00.363Z,2.83
2022-09-05T21:59:25.145Z,3.17
2022-09-05T21:59:40.039Z,2.83
2022-09-05T22:02:10.257Z,2.67
2022-09-05T22:04:38.695Z,2.80
2022-09-05T22:07:06.349Z,2.50
2022-09-05T22:09:30.795Z,2.53
2022-09-05T22:11:56.539Z,2.95
2022-09-05T22:14:21.339Z,6.25
2022-09-05T22:16:46.558Z,3.60
2022-09-05T22:19:10.307Z,2.47
2022-09-05T22:21:38.406Z,2.22
2022-09-05T22:24:06.527Z,2.00
2022-09-05T22:26:37.860Z,2.15
2022-09-05T22:29:05.800Z,2.67
2022-09-05T22:31:29.712Z,2.00
2022-09-05T22:33:53.491Z,1.95
2022-09-05T22:36:17.178Z,1.83
2022-09-05T22:38:43.302Z,2.13
2022-09-05T22:41:07.335Z,2.00
2022-09-05T22:43:31.103Z,2.03
2022-09-05T22:45:58.034Z,1.83
2022-09-05T22:48:21.861Z,1.60
2022-09-05T22:50:45.510Z,1.73
2022-09-05T22:53:10.570Z,1.88
2022-09-05T22:55:34.961Z,1.92
2022-09-05T22:57:58.646Z,1.73
2022-09-05T23:00:22.455Z,1.65
2022-09-05T23:02:52.195Z,1.70
2022-09-05T23:05:16.559Z,1.90
2022-09-05T23:07:40.223Z,1.63
2022-09-05T23:10:05.243Z,1.80
2022-09-05T23:12:28.962Z,1.98
2022-09-05T23:14:52.590Z,1.90
2022-09-05T23:17:16.241Z,1.63
2022-09-05T23:19:41.300Z,1.60
2022-09-05T23:22:05.287Z,1.70
2022-09-05T23:24:28.971Z,1.60
2022-09-05T23:26:52.602Z,1.77
2022-09-05T23:29:16.346Z,1.58
2022-09-05T23:31:39.947Z,1.40
2022-09-05T23:34:03.619Z,1.38
2022-09-05T23:36:28.679Z,1.70
2022-09-05T23:38:52.399Z,1.55
2022-09-05T23:41:16.962Z,1.60
2022-09-05T23:43:40.633Z,1.60
2022-09-05T23:46:05.487Z,1.50
2022-09-05T23:48:29.796Z,1.60
2022-09-05T23:50:53.731Z,1.40
2022-09-05T23:53:19.159Z,1.30
2022-09-05T23:55:43.434Z,1.40
2022-09-05T23:58:07.097Z,1.27
